createdAt,value
2022-12-19T00:02:38.103Z,1.01
2022-12-19T00:05:38.044Z,0.94
2022-12-19T00:08:38.132Z,0.86
2022-12-19T00:11:38.127Z,0.68
2022-12-19T00:14:38.156Z,0.69
2022-12-19T00:17:38.122Z,0.77
2022-12-19T00:20:38.045Z,0.59
2022-12-19T00:23:38.079Z,0.76
2022-12-19T00:26:38.075Z,0.56
2022-12-19T00:29:38.142Z,0.53
2022-12-19T00:32:38.130Z,0.3
2022-12-19T00:35:38.099Z,0.72
2022-12-19T00:38:38.067Z,0.59
2022-12-19T00:41:41.346Z,0.94
2022-12-19T00:44:38.095Z,0.67
2022-12-19T00:47:38.116Z,0.7
2022-12-19T00:50:38.094Z,0.8
2022-12-19T00:53:38.659Z,0.89
2022-12-19T00:56:38.407Z,0.87
2022-12-19T00:59:38.182Z,0.91
2022-12-19T01:02:38.308Z,0.86
2022-12-19T01:05:38.147Z,0.81
2022-12-19T01:08:38.141Z,0.59
2022-12-19T01:11:38.123Z,0.47
2022-12-19T01:14:38.186Z,0.46
2022-12-19T01:17:43.915Z,0.35
2022-12-19T01:20:38.227Z,1.11
2022-12-19T01:23:38.171Z,0.87
2022-12-19T01:26:38.096Z,0.79
2022-12-19T01:29:47.918Z,0.86
2022-12-19T01:32:38.195Z,0.97
2022-12-19T01:35:38.164Z,1.17
2022-12-19T01:38:38.162Z,1.42
2022-12-19T01:41:38.204Z,0.54
2022-12-19T01:44:38.199Z,0.62
2022-12-19T01:47:38.205Z,1.17
2022-12-19T01:50:38.164Z,1.44
2022-12-19T01:53:45.801Z,0.85
2022-12-19T01:56:38.212Z,0.36
2022-12-19T01:59:38.168Z,0.57
2022-12-19T02:02:38.162Z,0.7
2022-12-19T02:05:38.177Z,0.67
2022-12-19T02:08:38.148Z,0.59
2022-12-19T02:11:38.203Z,0.64
2022-12-19T02:14:38.219Z,0.19
2022-12-19T02:17:38.156Z,0.14
2022-12-19T02:20:38.146Z,0.09
2022-12-19T02:23:38.202Z,0.2
2022-12-19T02:26:38.203Z,0.32
2022-12-19T02:29:38.212Z,0.34
2022-12-19T02:32:38.175Z,0.94
2022-12-19T02:35:38.225Z,0.68
2022-12-19T02:38:38.229Z,0.22
2022-12-19T02:41:38.303Z,0.89
2022-12-19T02:44:38.250Z,1.04
2022-12-19T02:47:38.203Z,1.23
2022-12-19T02:50:38.185Z,1.17
2022-12-19T02:53:38.208Z,0.7
2022-12-19T02:56:38.262Z,0.47
2022-12-19T02:59:38.228Z,0.15
2022-12-19T03:02:38.232Z,0.55
2022-12-19T03:05:38.202Z,0.93
2022-12-19T03:08:38.280Z,0.86
2022-12-19T03:11:38.286Z,1.1
2022-12-19T03:14:38.190Z,1.01
2022-12-19T03:17:38.278Z,0.51
2022-12-19T03:20:38.268Z,0.25
2022-12-19T03:23:38.212Z,0.23
2022-12-19T03:26:38.251Z,0.22
2022-12-19T03:29:38.230Z,0.42
2022-12-19T03:32:38.305Z,1
2022-12-19T03:35:38.277Z,0.72
2022-12-19T03:38:38.317Z,0.47
2022-12-19T03:41:38.285Z,0.32
2022-12-19T03:44:38.220Z,1.01
2022-12-19T03:47:38.349Z,0.87
2022-12-19T03:50:38.315Z,0.52
2022-12-19T03:53:38.307Z,0.56
2022-12-19T03:56:38.369Z,1.3
2022-12-19T03:59:38.249Z,0.98
2022-12-19T04:02:38.296Z,1.07
2022-12-19T04:05:38.349Z,1.04
2022-12-19T04:08:38.234Z,0.48
2022-12-19T04:11:38.332Z,0.93
2022-12-19T04:14:38.307Z,0.71
2022-12-19T04:17:38.372Z,0.5
2022-12-19T04:20:38.280Z,0.46
2022-12-19T04:23:38.336Z,0.22
2022-12-19T04:26:38.352Z,0.64
2022-12-19T04:29:38.261Z,0.36
2022-12-19T04:32:38.340Z,0.51
2022-12-19T04:35:38.320Z,0.64
2022-12-19T04:38:38.312Z,0.63
2022-12-19T04:41:38.261Z,0.6
2022-12-19T04:44:38.304Z,0.62
2022-12-19T04:47:38.340Z,0.8
2022-12-19T04:50:38.347Z,0.58
2022-12-19T04:53:38.317Z,0.52
2022-12-19T04:56:38.345Z,0.68
2022-12-19T04:59:38.301Z,0.71
2022-12-19T05:02:38.437Z,0.82
2022-12-19T05:05:38.301Z,0.6
2022-12-19T05:08:38.343Z,0.93
2022-12-19T05:11:38.374Z,0.64
2022-12-19T05:14:38.377Z,0.95
2022-12-19T05:17:38.401Z,1.11
2022-12-19T05:20:38.348Z,1.4
2022-12-19T05:23:38.332Z,1.4
2022-12-19T05:26:38.376Z,1.55
2022-12-19T05:29:38.359Z,1.43
2022-12-19T05:32:38.379Z,1.66
2022-12-19T05:35:38.353Z,1.55
2022-12-19T05:38:38.407Z,1.36
2022-12-19T05:41:38.416Z,1.32
2022-12-19T05:44:38.324Z,1.49
2022-12-19T05:47:38.342Z,1.36
2022-12-19T05:50:38.321Z,1.22
2022-12-19T05:53:38.383Z,1.34
2022-12-19T05:56:38.389Z,1.37
2022-12-19T05:59:38.424Z,1.2
2022-12-19T06:02:38.501Z,1.23
2022-12-19T06:05:38.385Z,1.48
2022-12-19T06:08:38.393Z,1.51
2022-12-19T06:11:38.434Z,1.54
2022-12-19T06:14:38.318Z,1.46
2022-12-19T06:17:38.456Z,1.47
2022-12-19T06:20:38.423Z,1.12
2022-12-19T06:23:38.368Z,0.93
2022-12-19T06:26:38.360Z,0.89
2022-12-19T06:29:38.437Z,1.16
2022-12-19T06:32:38.585Z,1.34
2022-12-19T06:35:38.364Z,1.48
2022-12-19T06:38:38.380Z,1.23
2022-12-19T06:41:38.411Z,1.52
2022-12-19T06:44:38.440Z,1.18
2022-12-19T06:47:38.460Z,1.5
2022-12-19T06:50:38.449Z,1.21
2022-12-19T06:53:38.444Z,1.06
2022-12-19T06:56:38.466Z,1.02
2022-12-19T06:59:38.398Z,0.81
2022-12-19T07:02:38.535Z,0.88
2022-12-19T07:05:38.376Z,1.32
2022-12-19T07:08:38.525Z,1.69
2022-12-19T07:11:38.377Z,1.63
2022-12-19T07:14:38.407Z,1.65
2022-12-19T07:17:38.457Z,1.87
2022-12-19T07:20:41.922Z,1.49
2022-12-19T07:23:38.385Z,1.54
2022-12-19T07:26:38.471Z,1.7
2022-12-19T07:29:38.401Z,1.77
2022-12-19T07:32:38.494Z,1.17
2022-12-19T07:35:38.430Z,0.92
2022-12-19T07:38:38.499Z,0.86
2022-12-19T07:41:38.412Z,1.09
2022-12-19T07:44:41.377Z,0.84
2022-12-19T07:47:41.422Z,0.84
2022-12-19T07:50:38.444Z,0.81
2022-12-19T07:53:38.451Z,0.62
2022-12-19T07:56:38.476Z,1.1
2022-12-19T07:59:39.359Z,1.21
2022-12-19T08:02:38.474Z,0.97
2022-12-19T08:05:38.528Z,1.05
2022-12-19T08:08:38.453Z,0.96
2022-12-19T08:11:38.436Z,1.15
2022-12-19T08:14:38.456Z,1.03
2022-12-19T08:17:38.532Z,1.04
2022-12-19T08:20:38.505Z,1.07
2022-12-19T08:23:38.455Z,1.2
2022-12-19T08:26:41.969Z,0.87
2022-12-19T08:29:38.524Z,1.23
2022-12-19T08:32:38.552Z,1.39
2022-12-19T08:35:38.479Z,1.5
2022-12-19T08:38:38.469Z,1.74
2022-12-19T08:41:38.523Z,1.47
2022-12-19T08:44:38.455Z,1.49
2022-12-19T08:47:38.485Z,1.66
2022-12-19T08:50:38.552Z,1.71
2022-12-19T08:53:38.569Z,1.91
2022-12-19T08:56:38.553Z,1.68
2022-12-19T08:59:38.530Z,1.51
2022-12-19T09:02:38.758Z,1.2
2022-12-19T09:06:02.770Z,1.34
2022-12-19T09:08:38.515Z,0.99
2022-12-19T09:11:45.401Z,0.47
2022-12-19T09:14:38.533Z,0.45
2022-12-19T09:17:38.529Z,0.52
2022-12-19T09:20:38.520Z,0.6
2022-12-19T09:23:38.516Z,0.78
2022-12-19T09:26:38.558Z,1.15
2022-12-19T09:29:38.612Z,1.23
2022-12-19T09:32:38.590Z,0.98
2022-12-19T09:35:38.667Z,0.71
2022-12-19T09:38:38.569Z,0.8
2022-12-19T09:41:38.599Z,0.53
2022-12-19T09:44:38.553Z,1.02
2022-12-19T09:47:38.534Z,1.39
2022-12-19T09:50:38.636Z,1.4
2022-12-19T09:53:38.579Z,1.57
2022-12-19T09:56:40.252Z,1.38
2022-12-19T09:59:41.696Z,1.46
2022-12-19T10:02:38.653Z,1.41
2022-12-19T10:06:24.938Z,1.61
2022-12-19T10:08:43.104Z,1.21
2022-12-19T10:12:35.872Z,1.39
2022-12-19T10:14:38.539Z,1.11
2022-12-19T10:17:38.621Z,1.34
2022-12-19T10:20:38.677Z,1.12
2022-12-19T10:23:38.628Z,0.73
2022-12-19T10:26:38.538Z,0.89
2022-12-19T10:29:38.638Z,0.74
2022-12-19T10:32:38.560Z,0.74
2022-12-19T10:35:38.588Z,0.82
2022-12-19T10:38:39.468Z,0.59
2022-12-19T10:41:43.974Z,0.62
2022-12-19T10:44:38.617Z,0.61
2022-12-19T10:47:38.561Z,0.74
2022-12-19T10:50:38.587Z,0.64
2022-12-19T10:53:38.605Z,0.44
2022-12-19T10:56:38.612Z,0.91
2022-12-19T10:59:38.590Z,0.56
2022-12-19T11:02:38.835Z,1.01
2022-12-19T11:05:38.677Z,0.78
2022-12-19T11:08:38.706Z,0.93
2022-12-19T11:12:27.345Z,0.85
2022-12-19T11:17:33.245Z,0.68
2022-12-19T11:19:30.463Z,0.84
2022-12-19T11:26:38.595Z,1.28
2022-12-19T11:27:03.999Z,0.87
2022-12-19T11:30:23.749Z,1.3
2022-12-19T11:32:42.610Z,1.26
2022-12-19T11:35:38.607Z,1.24
2022-12-19T11:38:38.592Z,1.1
2022-12-19T11:41:38.719Z,1.32
2022-12-19T11:44:38.625Z,1.46
2022-12-19T11:47:38.635Z,1.33
2022-12-19T11:50:38.646Z,1.39
2022-12-19T11:53:38.681Z,1.44
2022-12-19T11:56:38.724Z,1.58
2022-12-19T11:59:38.699Z,1.55
2022-12-19T12:02:38.651Z,1.65
2022-12-19T12:05:38.705Z,1.7
2022-12-19T12:09:13.276Z,1.56
2022-12-19T12:13:14.173Z,1.54
2022-12-19T12:16:43.743Z,1.35
2022-12-19T12:21:15.849Z,0.96
2022-12-19T12:26:33.133Z,1.12
2022-12-19T12:31:33.788Z,1.19
2022-12-19T12:31:33.842Z,1.03
2022-12-19T12:31:37.979Z,0.68
2022-12-19T12:35:07.862Z,1.06
2022-12-19T12:38:39.091Z,0.89
2022-12-19T12:41:38.700Z,1.11
2022-12-19T12:44:44.988Z,1.16
2022-12-19T12:47:38.734Z,0.98
2022-12-19T12:50:38.691Z,1.29
2022-12-19T12:53:38.763Z,0.72
2022-12-19T12:56:38.747Z,0.53
2022-12-19T12:59:38.702Z,0.54
2022-12-19T13:02:38.889Z,0.61
2022-12-19T13:05:38.742Z,0.38
2022-12-19T13:08:38.767Z,0.72
2022-12-19T13:11:38.708Z,0.82
2022-12-19T13:14:38.777Z,1.22
2022-12-19T13:17:38.785Z,1.74
2022-12-19T13:20:38.727Z,1.58
2022-12-19T13:23:38.719Z,1.72
2022-12-19T13:26:38.706Z,1.71
2022-12-19T13:29:38.713Z,1.88
2022-12-19T13:32:38.730Z,1.73
2022-12-19T13:36:03.835Z,1.75
2022-12-19T13:39:52.871Z,1.49
2022-12-19T13:41:38.718Z,1.43
2022-12-19T13:44:38.743Z,1.53
2022-12-19T13:47:38.809Z,1.62
2022-12-19T13:50:38.745Z,1.74
2022-12-19T13:53:38.787Z,1.64
2022-12-19T13:56:38.812Z,1.56
2022-12-19T13:59:38.759Z,1.59
2022-12-19T14:02:44.604Z,1.73
2022-12-19T14:06:15.589Z,1.87
2022-12-19T14:08:38.768Z,1.9
2022-12-19T14:11:55.411Z,1.93
2022-12-19T14:14:38.754Z,1.74
2022-12-19T14:17:38.845Z,1.93
2022-12-19T14:20:54.372Z,1.83
2022-12-19T14:23:43.225Z,1.55
2022-12-19T14:28:27.464Z,2.03
2022-12-19T14:30:02.372Z,1.68
2022-12-19T14:33:41.371Z,1.83
2022-12-19T14:36:09.118Z,2.04
2022-12-19T14:39:21.339Z,1.67
2022-12-19T14:41:38.828Z,1.87
2022-12-19T14:49:40.628Z,1.69
2022-12-19T14:50:16.471Z,1.79
2022-12-19T14:52:52.468Z,1.85
2022-12-19T14:54:19.424Z,1.36
2022-12-19T14:56:59.438Z,1.21
2022-12-19T14:59:38.826Z,1.01
2022-12-19T15:02:38.909Z,0.9
2022-12-19T15:05:38.793Z,0.76
2022-12-19T15:09:17.908Z,0.58
2022-12-19T15:11:53.449Z,0.75
2022-12-19T15:14:49.976Z,1.26
2022-12-19T15:17:38.800Z,0.81
2022-12-19T15:20:38.978Z,0.56
2022-12-19T15:23:38.866Z,0.83
2022-12-19T15:26:38.910Z,0.84
2022-12-19T15:29:38.912Z,0.9
2022-12-19T15:32:38.842Z,1.34
2022-12-19T15:35:38.861Z,1.22
2022-12-19T15:38:38.827Z,1.32
2022-12-19T15:41:38.864Z,1.83
2022-12-19T15:44:38.856Z,1.87
2022-12-19T15:47:38.835Z,1.78
2022-12-19T15:50:38.849Z,2.24
2022-12-19T15:53:41.219Z,2.28
2022-12-19T15:56:38.848Z,2.02
2022-12-19T15:59:38.901Z,2.1
2022-12-19T16:05:38.914Z,1.7
2022-12-19T16:08:38.901Z,2.15
2022-12-19T16:11:41.101Z,2.02
2022-12-19T16:14:41.865Z,2.21
2022-12-19T16:17:38.914Z,1.66
2022-12-19T16:20:38.850Z,2.28
2022-12-19T16:23:38.856Z,2.34
2022-12-19T16:26:38.977Z,2.03
2022-12-19T16:29:41.785Z,2.13
2022-12-19T16:32:38.886Z,1.93
2022-12-19T16:36:03.414Z,2.28
2022-12-19T16:38:38.949Z,1.89
2022-12-19T16:41:41.889Z,2.25
2022-12-19T16:44:38.975Z,2.12
2022-12-19T16:47:38.878Z,2.21
2022-12-19T16:50:38.975Z,2.1
2022-12-19T16:53:38.951Z,2.2
2022-12-19T16:56:38.873Z,1.94
2022-12-19T16:59:38.943Z,1.76
2022-12-19T17:02:39.016Z,1.72
2022-12-19T17:05:38.961Z,2.08
2022-12-19T17:08:38.916Z,2.26
2022-12-19T17:11:38.901Z,1.93
2022-12-19T17:14:38.968Z,1.82
2022-12-19T17:17:38.915Z,1.97
2022-12-19T17:20:38.885Z,2.13
2022-12-19T17:23:38.901Z,2.07
2022-12-19T17:26:39.009Z,2.11
2022-12-19T17:29:38.943Z,2.28
2022-12-19T17:32:40.869Z,2.22
2022-12-19T17:35:38.929Z,1.98
2022-12-19T17:38:38.996Z,2.11
2022-12-19T17:41:39.074Z,1.99
2022-12-19T17:44:38.957Z,2.04
2022-12-19T17:47:38.949Z,2.17
2022-12-19T17:50:39.028Z,2.33
2022-12-19T17:53:38.988Z,1.94
2022-12-19T17:56:38.981Z,2.42
2022-12-19T17:59:38.941Z,2.17
2022-12-19T18:02:39.066Z,1.9
2022-12-19T18:05:39.014Z,2.06
2022-12-19T18:08:38.969Z,1.89
2022-12-19T18:11:42.033Z,2.03
2022-12-19T18:14:38.940Z,2.1
2022-12-19T18:17:39.005Z,1.9
2022-12-19T18:20:38.973Z,1.72
2022-12-19T18:23:39.067Z,1.71
2022-12-19T18:26:39.009Z,1.61
2022-12-19T18:29:38.977Z,1.32
2022-12-19T18:32:38.975Z,1.45
2022-12-19T18:35:39.041Z,1.25
2022-12-19T18:38:39.080Z,1.35
2022-12-19T18:41:39.013Z,1.2
2022-12-19T18:44:39.051Z,0.92
2022-12-19T18:47:38.999Z,0.97
2022-12-19T18:50:38.996Z,1.02
2022-12-19T18:53:38.976Z,1.06
2022-12-19T18:56:39.091Z,0.52
2022-12-19T18:59:38.976Z,0.74
2022-12-19T19:02:39.118Z,0.69
2022-12-19T19:05:39.001Z,0.64
2022-12-19T19:08:39.009Z,0.62
2022-12-19T19:11:38.989Z,0.79
2022-12-19T19:14:39.080Z,1.07
2022-12-19T19:17:39.125Z,1.08
2022-12-19T19:20:39.021Z,1.31
2022-12-19T19:23:39.099Z,1.29
2022-12-19T19:26:39.070Z,1.19
2022-12-19T19:29:39.022Z,1.16
2022-12-19T19:32:39.028Z,0.9
2022-12-19T19:35:39.021Z,1.08
2022-12-19T19:38:39.114Z,0.94
2022-12-19T19:41:39.110Z,0.79
2022-12-19T19:44:39.092Z,0.74
2022-12-19T19:47:39.066Z,0.54
2022-12-19T19:50:39.027Z,0.65
2022-12-19T19:53:39.028Z,0.34
2022-12-19T19:56:39.038Z,0.36
2022-12-19T19:59:39.094Z,0.48
2022-12-19T20:02:39.335Z,0.28
2022-12-19T20:05:39.061Z,0.04
2022-12-19T20:08:40.347Z,0.26
2022-12-19T20:11:39.139Z,0.12
2022-12-19T20:14:39.083Z,0.09
2022-12-19T20:17:39.066Z,0.02
2022-12-19T20:20:39.131Z,0.01
2022-12-19T20:23:39.078Z,0
2022-12-19T20:26:39.202Z,0
2022-12-19T20:29:41.474Z,0
2022-12-19T20:32:39.045Z,0.13
2022-12-19T20:35:39.208Z,0.29
2022-12-19T20:38:39.093Z,0.37
2022-12-19T20:41:39.092Z,0.53
2022-12-19T20:44:39.133Z,0.4
2022-12-19T20:47:39.101Z,0.57
2022-12-19T20:50:42.851Z,0.48
2022-12-19T20:53:39.096Z,0.44
2022-12-19T20:56:39.100Z,0.36
2022-12-19T20:59:39.081Z,0.2
2022-12-19T21:03:00.511Z,0.06
2022-12-19T21:05:39.137Z,0.25
2022-12-19T21:08:39.169Z,0.17
2022-12-19T21:11:39.174Z,0.42
2022-12-19T21:14:39.102Z,0.15
2022-12-19T21:17:39.179Z,0.04
2022-12-19T21:20:39.122Z,0.32
2022-12-19T21:23:39.178Z,0.23
2022-12-19T21:26:39.116Z,0.01
2022-12-19T21:29:39.201Z,0.05
2022-12-19T21:32:39.201Z,0.08
2022-12-19T21:35:39.133Z,0.14
2022-12-19T21:38:39.151Z,0.21
2022-12-19T21:41:39.215Z,0.08
2022-12-19T21:44:39.100Z,0.26
2022-12-19T21:47:39.152Z,0.28
2022-12-19T21:50:39.134Z,0.25
2022-12-19T21:53:39.196Z,0.22
2022-12-19T21:56:39.186Z,0.22
2022-12-19T21:59:39.244Z,0.32
2022-12-19T22:02:39.523Z,0.03
2022-12-19T22:05:39.145Z,0.09
2022-12-19T22:08:39.211Z,0.09
2022-12-19T22:11:39.217Z,0.04
2022-12-19T22:14:39.163Z,0.3
2022-12-19T22:17:39.141Z,0.05
2022-12-19T22:20:39.223Z,0
2022-12-19T22:23:39.224Z,0.34
2022-12-19T22:26:39.208Z,0.29
2022-12-19T22:29:39.181Z,0.14
2022-12-19T22:32:39.158Z,0.08
2022-12-19T22:35:39.220Z,0
2022-12-19T22:38:39.169Z,0
2022-12-19T22:41:39.163Z,0.04
2022-12-19T22:44:39.292Z,0.15
2022-12-19T22:47:39.229Z,0.33
2022-12-19T22:50:39.257Z,0.11
2022-12-19T22:53:39.166Z,0.01
2022-12-19T22:56:39.248Z,0.06
2022-12-19T22:59:39.205Z,0.11
2022-12-19T23:02:39.338Z,0.31
2022-12-19T23:05:39.265Z,0.09
2022-12-19T23:08:39.234Z,0.16
2022-12-19T23:11:39.231Z,0.09
2022-12-19T23:14:39.266Z,0.19
2022-12-19T23:17:39.172Z,0.16
2022-12-19T23:20:39.291Z,0.04
2022-12-19T23:23:39.278Z,0.04
2022-12-19T23:26:39.218Z,0.02
2022-12-19T23:29:39.232Z,0.08
2022-12-19T23:32:39.752Z,0
2022-12-19T23:35:39.216Z,0.18
2022-12-19T23:38:39.225Z,0.13
2022-12-19T23:41:39.206Z,0
2022-12-19T23:44:39.258Z,0.09
2022-12-19T23:47:39.284Z,0.04
2022-12-19T23:50:39.290Z,0.16
2022-12-19T23:53:39.263Z,0.03
2022-12-19T23:56:39.280Z,0.45
2022-12-19T23:59:39.303Z,0.11
